createdAt,value
2018-09-28T00:01:51.649Z,66.25
2018-09-28T00:04:20.828Z,66.32
2018-09-28T00:06:49.899Z,68.69
2018-09-28T00:09:19.029Z,68.39
2018-09-28T00:11:48.082Z,72.11
2018-09-28T00:14:17.206Z,75.29
2018-09-28T00:16:46.312Z,71.53
2018-09-28T00:19:15.414Z,72.13
2018-09-28T00:21:44.493Z,71.81
2018-09-28T00:24:13.706Z,71.72
2018-09-28T00:26:42.772Z,73.89
2018-09-28T00:29:11.887Z,75.22
2018-09-28T00:31:41.085Z,74.07
2018-09-28T00:34:10.196Z,71.69
2018-09-28T00:36:39.295Z,70.81
2018-09-28T00:39:09.200Z,69.07
2018-09-28T00:41:38.288Z,69.82
2018-09-28T00:44:07.445Z,70.48
2018-09-28T00:46:36.514Z,70.52
2018-09-28T00:49:05.637Z,71.24
2018-09-28T00:51:34.743Z,69.90
2018-09-28T00:54:03.821Z,69.82
2018-09-28T00:56:32.919Z,70.03
2018-09-28T00:59:02.024Z,70.25
2018-09-28T01:01:31.097Z,69.58
2018-09-28T01:04:00.223Z,69.50
2018-09-28T01:06:29.293Z,68.96
2018-09-28T01:08:58.405Z,68.15
2018-09-28T01:11:27.832Z,69.49
2018-09-28T01:13:56.932Z,67.73
2018-09-28T01:16:25.985Z,67.37
2018-09-28T01:18:55.100Z,67.57
2018-09-28T01:21:24.184Z,67.72
2018-09-28T01:23:53.319Z,68.38
2018-09-28T01:26:22.380Z,69.80
2018-09-28T01:28:51.559Z,68.06
2018-09-28T01:31:20.706Z,68.89
2018-09-28T01:33:49.890Z,69.82
2018-09-28T01:36:18.943Z,67.59
2018-09-28T01:38:48.166Z,67.79
2018-09-28T01:41:17.267Z,67.73
2018-09-28T01:43:52.798Z,67.37
2018-09-28T01:46:21.918Z,67.08
2018-09-28T01:48:51.059Z,67.74
2018-09-28T01:51:20.118Z,67.59
2018-09-28T01:53:49.336Z,66.87
2018-09-28T01:56:18.432Z,68.28
2018-09-28T01:58:47.613Z,68.63
2018-09-28T02:01:16.687Z,67.75
2018-09-28T02:03:45.834Z,67.25
2018-09-28T02:06:14.945Z,67.43
2018-09-28T02:08:44.058Z,68.87
2018-09-28T02:11:13.206Z,67.61
2018-09-28T02:13:42.329Z,67.04
2018-09-28T02:16:11.434Z,67.31
2018-09-28T02:18:40.614Z,66.56
2018-09-28T02:21:09.681Z,67.67
2018-09-28T02:23:38.777Z,68.87
2018-09-28T02:26:07.881Z,67.64
2018-09-28T02:28:37.016Z,67.34
2018-09-28T02:31:06.223Z,68.66
2018-09-28T02:33:35.364Z,68.85
2018-09-28T02:36:04.465Z,68.29
2018-09-28T02:38:33.605Z,68.80
2018-09-28T02:41:02.716Z,68.97
2018-09-28T02:43:31.900Z,69.39
2018-09-28T02:46:00.993Z,68.84
2018-09-28T02:48:30.179Z,69.47
2018-09-28T02:50:59.297Z,67.97
2018-09-28T02:53:28.426Z,67.81
2018-09-28T02:55:57.476Z,70.90
2018-09-28T02:58:26.588Z,69.52
2018-09-28T03:00:55.709Z,69.15
2018-09-28T03:03:24.851Z,70.43
2018-09-28T03:05:53.909Z,69.14
2018-09-28T03:08:23.012Z,70.32
2018-09-28T03:10:52.184Z,69.59
2018-09-28T03:13:21.325Z,70.57
2018-09-28T03:15:50.438Z,71.67
2018-09-28T03:18:19.612Z,69.32
2018-09-28T03:20:48.782Z,69.72
2018-09-28T03:23:17.984Z,70.11
2018-09-28T03:25:47.047Z,68.94
2018-09-28T03:28:16.264Z,69.17
2018-09-28T03:30:45.368Z,70.46
2018-09-28T03:33:14.492Z,71.19
2018-09-28T03:35:43.635Z,69.35
2018-09-28T03:38:12.721Z,69.11
2018-09-28T03:40:41.926Z,71.28
2018-09-28T03:43:11.035Z,69.57
2018-09-28T03:45:40.195Z,69.70
2018-09-28T03:48:09.277Z,69.17
2018-09-28T03:50:38.525Z,72.10
2018-09-28T03:53:07.631Z,70.38
2018-09-28T03:55:36.865Z,70.04
2018-09-28T03:58:05.975Z,72.28
2018-09-28T04:00:35.104Z,71.59
2018-09-28T04:03:04.297Z,71.70
2018-09-28T04:05:33.498Z,71.05
2018-09-28T04:08:02.640Z,71.25
2018-09-28T04:10:31.829Z,70.36
2018-09-28T04:13:00.938Z,70.42
2018-09-28T04:15:30.178Z,71.28
2018-09-28T04:17:59.262Z,70.19
2018-09-28T04:20:28.529Z,69.79
2018-09-28T04:22:57.604Z,70.10
2018-09-28T04:25:26.842Z,70.02
2018-09-28T04:27:55.949Z,70.84
2018-09-28T04:30:25.049Z,71.22
2018-09-28T04:32:54.156Z,72.42
2018-09-28T04:35:23.309Z,72.63
2018-09-28T04:37:52.430Z,71.96
2018-09-28T04:40:21.566Z,72.87
2018-09-28T04:42:50.742Z,74.01
2018-09-28T04:45:19.964Z,74.27
2018-09-28T04:47:49.032Z,74.46
2018-09-28T04:50:18.193Z,74.50
2018-09-28T04:52:47.285Z,73.41
2018-09-28T04:55:16.401Z,73.09
2018-09-28T04:57:45.444Z,72.75
2018-09-28T05:00:14.580Z,73.37
2018-09-28T05:02:43.673Z,72.42
2018-09-28T05:05:12.837Z,72.46
2018-09-28T05:07:41.953Z,71.59
2018-09-28T05:10:11.136Z,72.42
2018-09-28T05:12:40.244Z,71.27
2018-09-28T05:15:09.414Z,70.54
2018-09-28T05:17:38.534Z,72.11
2018-09-28T05:20:08.472Z,73.45
2018-09-28T05:22:37.782Z,72.42
2018-09-28T05:25:07.142Z,71.27
2018-09-28T05:27:36.369Z,71.35
2018-09-28T05:30:05.568Z,70.64
2018-09-28T05:32:34.909Z,71.38
2018-09-28T05:35:04.047Z,71.77
2018-09-28T05:37:33.207Z,71.33
2018-09-28T05:40:02.384Z,71.85
2018-09-28T05:42:31.485Z,70.68
2018-09-28T05:45:00.696Z,69.90
2018-09-28T05:47:29.866Z,69.98
2018-09-28T05:49:59.073Z,71.00
2018-09-28T05:52:28.186Z,69.14
2018-09-28T05:55:03.932Z,68.98
2018-09-28T05:57:33.085Z,71.23
2018-09-28T06:00:07.178Z,68.76
2018-09-28T06:02:41.359Z,68.72
2018-09-28T06:05:15.650Z,71.49
2018-09-28T06:07:44.770Z,68.78
2018-09-28T06:10:14.007Z,67.31
2018-09-28T06:12:43.876Z,67.65
2018-09-28T06:15:13.131Z,68.31
2018-09-28T06:17:42.241Z,66.45
2018-09-28T06:20:11.466Z,66.57
2018-09-28T06:22:40.591Z,69.15
2018-09-28T06:25:09.790Z,67.11
2018-09-28T06:27:38.929Z,66.82
2018-09-28T06:30:08.141Z,64.98
2018-09-28T06:32:37.297Z,67.07
2018-09-28T06:35:06.497Z,64.96
2018-09-28T06:37:36.536Z,65.62
2018-09-28T06:40:05.672Z,63.40
2018-09-28T06:42:34.768Z,66.05
2018-09-28T06:45:04.139Z,64.45
2018-09-28T06:47:33.242Z,62.96
2018-09-28T06:50:02.426Z,64.00
2018-09-28T06:52:31.569Z,64.04
2018-09-28T06:55:00.873Z,64.59
2018-09-28T06:57:30.201Z,62.00
2018-09-28T06:59:59.558Z,63.53
2018-09-28T07:02:29.134Z,62.06
2018-09-28T07:04:58.872Z,63.34
2018-09-28T07:07:28.049Z,62.75
2018-09-28T07:09:57.377Z,59.80
2018-09-28T07:12:26.668Z,60.34
2018-09-28T07:14:56.035Z,58.04
2018-09-28T07:17:25.588Z,57.93
2018-09-28T07:19:55.330Z,57.85
2018-09-28T07:22:24.902Z,57.09
2018-09-28T07:24:54.470Z,56.55
2018-09-28T07:27:23.824Z,56.62
2018-09-28T07:29:53.473Z,54.49
2018-09-28T07:32:23.055Z,56.79
2018-09-28T07:34:52.345Z,53.97
2018-09-28T07:37:21.635Z,54.84
2018-09-28T07:39:50.863Z,54.87
2018-09-28T07:42:20.153Z,54.38
2018-09-28T07:44:50.207Z,54.83
2018-09-28T07:47:19.716Z,57.78
2018-09-28T07:49:48.943Z,54.23
2018-09-28T07:52:18.743Z,54.62
2018-09-28T07:54:48.193Z,56.23
2018-09-28T07:57:17.712Z,56.08
2018-09-28T07:59:47.058Z,55.39
2018-09-28T08:02:16.547Z,54.42
2018-09-28T08:04:46.047Z,54.58
2018-09-28T08:07:15.549Z,56.22
2018-09-28T08:09:45.025Z,56.29
2018-09-28T08:12:14.578Z,54.59
2018-09-28T08:14:44.290Z,55.18
2018-09-28T08:17:13.800Z,55.27
2018-09-28T08:19:43.359Z,52.11
2018-09-28T08:22:12.710Z,51.04
2018-09-28T08:24:42.138Z,54.26
2018-09-28T08:27:11.407Z,51.33
2018-09-28T08:29:40.548Z,50.22
2018-09-28T08:32:09.874Z,49.98
2018-09-28T08:34:39.146Z,50.11
2018-09-28T08:37:08.399Z,49.58
2018-09-28T08:39:37.641Z,48.38
2018-09-28T08:42:07.179Z,47.99
2018-09-28T08:44:36.696Z,45.96
2018-09-28T08:47:06.077Z,45.97
2018-09-28T08:49:35.282Z,46.97
2018-09-28T08:52:04.509Z,44.90
2018-09-28T08:54:33.676Z,46.10
2018-09-28T08:57:02.882Z,44.57
2018-09-28T08:59:31.993Z,43.23
2018-09-28T09:02:01.279Z,42.14
2018-09-28T09:04:30.489Z,40.04
2018-09-28T09:06:59.716Z,41.64
2018-09-28T09:09:28.995Z,41.19
2018-09-28T09:11:58.277Z,41.95
2018-09-28T09:14:28.758Z,41.32
2018-09-28T09:16:57.996Z,40.39
2018-09-28T09:19:27.264Z,39.59
2018-09-28T09:21:56.498Z,38.70
2018-09-28T09:24:25.675Z,39.53
2018-09-28T09:26:54.991Z,39.83
2018-09-28T09:29:24.177Z,38.80
2018-09-28T09:31:53.465Z,37.39
2018-09-28T09:34:22.751Z,36.35
2018-09-28T09:36:52.052Z,35.79
2018-09-28T09:39:21.265Z,35.00
2018-09-28T09:41:50.481Z,34.65
2018-09-28T09:44:19.710Z,34.77
2018-09-28T09:46:49.004Z,34.60
2018-09-28T09:49:18.203Z,35.36
2018-09-28T09:51:47.476Z,34.58
2018-09-28T09:54:16.666Z,33.93
2018-09-28T09:56:45.871Z,32.90
2018-09-28T09:59:15.067Z,32.22
2018-09-28T10:01:49.193Z,34.05
2018-09-28T10:04:18.372Z,31.32
2018-09-28T10:06:47.602Z,29.84
2018-09-28T10:09:16.701Z,31.49
2018-09-28T10:11:45.876Z,30.45
2018-09-28T10:14:15.098Z,29.70
2018-09-28T10:16:44.379Z,28.29
2018-09-28T10:19:13.540Z,28.09
2018-09-28T10:21:42.750Z,28.41
2018-09-28T10:24:11.959Z,30.04
2018-09-28T10:26:41.181Z,28.62
2018-09-28T10:29:10.362Z,29.29
2018-09-28T10:31:39.543Z,28.37
2018-09-28T10:34:08.633Z,29.04
2018-09-28T10:36:37.873Z,28.18
2018-09-28T10:39:08.491Z,27.21
2018-09-28T10:41:37.700Z,26.65
2018-09-28T10:44:07.085Z,26.82
2018-09-28T10:46:36.379Z,26.93
2018-09-28T10:49:05.619Z,25.68
2018-09-28T10:51:34.909Z,25.62
2018-09-28T10:54:04.062Z,25.97
2018-09-28T10:56:33.253Z,26.14
2018-09-28T10:59:02.430Z,27.33
2018-09-28T11:01:31.703Z,26.93
2018-09-28T11:04:00.946Z,26.42
2018-09-28T11:06:30.241Z,26.80
2018-09-28T11:08:59.448Z,26.96
2018-09-28T11:11:28.761Z,26.47
2018-09-28T11:13:58.008Z,27.06
2018-09-28T11:16:27.320Z,27.41
2018-09-28T11:18:56.877Z,25.95
2018-09-28T11:21:26.296Z,25.88
2018-09-28T11:23:55.410Z,24.31
2018-09-28T11:26:24.752Z,23.97
2018-09-28T11:28:54.169Z,25.88
2018-09-28T11:31:23.488Z,23.75
2018-09-28T11:33:52.725Z,25.27
2018-09-28T11:36:22.057Z,24.76
2018-09-28T11:38:51.270Z,24.04
2018-09-28T11:41:20.488Z,25.50
2018-09-28T11:43:49.788Z,23.62
2018-09-28T11:46:18.998Z,24.58
2018-09-28T11:48:48.168Z,24.30
2018-09-28T11:51:17.312Z,22.99
2018-09-28T11:53:46.508Z,24.47
2018-09-28T11:56:15.668Z,25.69
2018-09-28T11:58:44.973Z,24.37
2018-09-28T12:01:14.193Z,25.09
2018-09-28T12:03:43.370Z,23.06
2018-09-28T12:06:12.646Z,22.82
2018-09-28T12:08:41.840Z,22.74
2018-09-28T12:11:11.070Z,21.99
2018-09-28T12:13:40.397Z,22.06
2018-09-28T12:16:09.687Z,21.31
2018-09-28T12:18:38.999Z,20.79
2018-09-28T12:21:08.201Z,21.42
2018-09-28T12:23:37.580Z,23.08
2018-09-28T12:26:07.874Z,19.46
2018-09-28T12:28:37.044Z,22.12
2018-09-28T12:31:06.203Z,22.23
2018-09-28T12:33:35.530Z,23.62
2018-09-28T12:36:04.762Z,25.28
2018-09-28T12:38:33.916Z,25.97
2018-09-28T12:41:03.124Z,26.53
2018-09-28T12:43:35.034Z,26.55
2018-09-28T12:46:01.506Z,28.30
2018-09-28T12:48:30.820Z,27.02
2018-09-28T12:50:59.939Z,27.44
2018-09-28T12:53:29.126Z,26.56
2018-09-28T12:55:58.244Z,27.52
2018-09-28T12:58:27.540Z,29.55
2018-09-28T13:00:56.774Z,29.96
2018-09-28T13:03:25.959Z,29.81
2018-09-28T13:05:55.170Z,30.39
2018-09-28T13:08:24.523Z,30.89
2018-09-28T13:10:53.617Z,30.81
2018-09-28T13:13:22.901Z,31.23
2018-09-28T13:15:52.138Z,32.45
2018-09-28T13:18:21.331Z,32.97
2018-09-28T13:20:50.822Z,34.47
2018-09-28T13:23:20.440Z,32.52
2018-09-28T13:25:49.653Z,34.28
2018-09-28T13:28:19.311Z,35.11
2018-09-28T13:30:48.555Z,35.98
2018-09-28T13:33:18.064Z,37.69
2018-09-28T13:35:49.196Z,36.84
2018-09-28T13:38:18.954Z,38.37
2018-09-28T13:40:48.479Z,37.67
2018-09-28T13:43:17.823Z,38.77
2018-09-28T13:45:47.423Z,40.51
2018-09-28T13:48:18.190Z,40.97
2018-09-28T13:50:47.555Z,42.23
2018-09-28T13:53:16.854Z,42.48
2018-09-28T13:55:46.025Z,43.75
2018-09-28T13:58:15.703Z,47.26
2018-09-28T14:00:45.055Z,46.95
2018-09-28T14:03:14.501Z,46.73
2018-09-28T14:05:44.416Z,46.98
2018-09-28T14:08:14.216Z,47.17
2018-09-28T14:10:43.670Z,48.35
2018-09-28T14:13:13.023Z,47.55
2018-09-28T14:15:42.302Z,51.14
2018-09-28T14:18:12.521Z,52.41
2018-09-28T14:20:42.117Z,52.04
2018-09-28T14:23:11.668Z,51.61
2018-09-28T14:25:41.094Z,52.70
2018-09-28T14:28:10.361Z,54.30
2018-09-28T14:30:39.602Z,52.50
2018-09-28T14:33:08.905Z,52.23
2018-09-28T14:35:41.959Z,53.46
2018-09-28T14:38:11.286Z,53.28
2018-09-28T14:40:40.622Z,52.10
2018-09-28T14:43:09.982Z,53.58
2018-09-28T14:45:39.336Z,53.51
2018-09-28T14:48:09.114Z,53.59
2018-09-28T14:50:38.746Z,55.00
2018-09-28T14:53:08.998Z,53.81
2018-09-28T14:55:38.596Z,54.92
2018-09-28T14:58:07.838Z,54.74
2018-09-28T15:00:37.226Z,55.30
2018-09-28T15:03:06.606Z,56.08
2018-09-28T15:05:36.096Z,55.81
2018-09-28T15:08:05.431Z,56.50
2018-09-28T15:10:34.823Z,56.88
2018-09-28T15:13:04.344Z,58.11
2018-09-28T15:15:33.664Z,58.79
2018-09-28T15:18:02.896Z,59.16
2018-09-28T15:20:33.729Z,59.23
2018-09-28T15:23:03.115Z,58.98
2018-09-28T15:25:32.459Z,60.51
2018-09-28T15:28:02.016Z,59.45
2018-09-28T15:30:31.370Z,59.01
2018-09-28T15:33:01.214Z,59.67
2018-09-28T15:35:30.559Z,60.75
2018-09-28T15:37:59.867Z,61.94
2018-09-28T15:40:29.287Z,60.69
2018-09-28T15:42:58.795Z,60.74
2018-09-28T15:45:28.906Z,62.25
2018-09-28T15:47:58.332Z,61.14
2018-09-28T15:50:28.439Z,60.89
2018-09-28T15:52:58.433Z,61.27
2018-09-28T15:55:27.836Z,60.71
2018-09-28T15:57:58.231Z,61.98
2018-09-28T16:00:28.424Z,61.77
2018-09-28T16:03:00.067Z,61.31
2018-09-28T16:05:29.479Z,60.96
2018-09-28T16:07:59.332Z,60.52
2018-09-28T16:10:28.917Z,61.08
2018-09-28T16:12:58.602Z,62.13
2018-09-28T16:15:28.146Z,60.54
2018-09-28T16:18:04.114Z,60.90
2018-09-28T16:20:38.976Z,60.37
2018-09-28T16:23:09.142Z,59.99
2018-09-28T16:25:42.737Z,60.34
2018-09-28T16:28:12.574Z,59.52
2018-09-28T16:30:43.796Z,59.94
2018-09-28T16:33:13.905Z,59.31
2018-09-28T16:35:44.233Z,58.75
2018-09-28T16:38:13.758Z,58.29
2018-09-28T16:40:44.595Z,59.15
2018-09-28T16:43:14.165Z,58.20
2018-09-28T16:45:44.665Z,58.30
2018-09-28T16:48:15.406Z,57.74
2018-09-28T16:50:46.937Z,57.60
2018-09-28T16:53:16.867Z,57.84
2018-09-28T16:55:53.509Z,57.30
2018-09-28T16:58:26.279Z,56.96
2018-09-28T17:00:56.665Z,57.32
2018-09-28T17:03:27.814Z,56.71
2018-09-28T17:05:59.295Z,56.67
2018-09-28T17:08:30.831Z,56.45
2018-09-28T17:11:01.071Z,56.43
2018-09-28T17:13:31.366Z,56.20
2018-09-28T17:16:02.503Z,56.83
2018-09-28T17:18:32.817Z,56.30
2018-09-28T17:21:02.893Z,55.97
2018-09-28T17:23:32.976Z,55.83
2018-09-28T17:26:03.765Z,56.46
2018-09-28T17:28:33.986Z,56.70
2018-09-28T17:31:04.423Z,56.51
2018-09-28T17:33:34.580Z,55.27
2018-09-28T17:36:04.784Z,55.46
2018-09-28T17:38:33.991Z,56.34
2018-09-28T17:41:03.515Z,55.73
2018-09-28T17:43:33.501Z,55.59
2018-09-28T17:46:02.828Z,55.23
2018-09-28T17:48:32.126Z,54.61
2018-09-28T17:51:01.492Z,54.44
2018-09-28T17:53:30.727Z,53.61
2018-09-28T17:56:00.102Z,55.30
2018-09-28T17:58:30.426Z,53.69
2018-09-28T18:01:00.186Z,53.14
2018-09-28T18:03:29.499Z,53.63
2018-09-28T18:05:58.772Z,53.44
2018-09-28T18:08:28.037Z,53.14
2018-09-28T18:10:57.322Z,53.26
2018-09-28T18:13:26.530Z,53.04
2018-09-28T18:15:55.766Z,53.53
2018-09-28T18:18:30.424Z,53.15
2018-09-28T18:20:59.710Z,53.80
2018-09-28T18:23:28.954Z,54.03
2018-09-28T18:25:58.208Z,54.08
2018-09-28T18:28:27.479Z,53.24
2018-09-28T18:30:56.794Z,54.40
2018-09-28T18:33:26.057Z,53.58
2018-09-28T18:35:55.419Z,53.79
2018-09-28T18:38:24.609Z,53.62
2018-09-28T18:40:53.944Z,53.54
2018-09-28T18:43:23.139Z,54.67
2018-09-28T18:45:52.663Z,55.52
2018-09-28T18:48:21.973Z,56.11
2018-09-28T18:51:08.826Z,57.27
2018-09-28T18:53:38.143Z,56.96
2018-09-28T18:56:07.650Z,58.46
2018-09-28T18:58:36.914Z,58.43
2018-09-28T19:01:06.227Z,59.46
2018-09-28T19:03:35.442Z,59.77
2018-09-28T19:06:04.939Z,59.28
2018-09-28T19:08:34.247Z,60.09
2018-09-28T19:11:03.528Z,60.12
2018-09-28T19:13:32.786Z,59.90
2018-09-28T19:16:02.099Z,61.03
2018-09-28T19:18:31.265Z,60.77
2018-09-28T19:21:00.578Z,60.14
2018-09-28T19:23:29.877Z,59.97
2018-09-28T19:25:59.045Z,60.14
2018-09-28T19:28:28.318Z,60.73
2018-09-28T19:30:57.793Z,60.34
2018-09-28T19:33:26.920Z,60.50
2018-09-28T19:35:58.688Z,60.41
2018-09-28T19:38:28.089Z,60.58
2018-09-28T19:40:57.395Z,60.76
2018-09-28T19:43:26.834Z,61.03
2018-09-28T19:45:56.829Z,61.18
2018-09-28T19:48:26.918Z,60.65
2018-09-28T19:50:56.432Z,60.21
2018-09-28T19:53:25.691Z,60.82
2018-09-28T19:55:55.271Z,60.32
2018-09-28T19:58:24.598Z,60.09
2018-09-28T20:00:53.815Z,60.79
2018-09-28T20:03:23.244Z,60.54
2018-09-28T20:05:52.454Z,59.94
2018-09-28T20:08:21.727Z,60.36
2018-09-28T20:10:50.982Z,59.93
2018-09-28T20:13:20.286Z,59.88
2018-09-28T20:15:49.428Z,61.13
2018-09-28T20:18:18.697Z,59.86
2018-09-28T20:20:48.058Z,60.18
2018-09-28T20:23:17.294Z,59.84
2018-09-28T20:25:46.538Z,59.78
2018-09-28T20:28:15.769Z,60.11
2018-09-28T20:30:46.246Z,59.96
2018-09-28T20:33:15.527Z,59.84
2018-09-28T20:35:44.747Z,59.57
2018-09-28T20:38:14.017Z,59.98
2018-09-28T20:40:43.173Z,59.65
2018-09-28T20:43:12.440Z,59.53
2018-09-28T20:45:41.564Z,59.27
2018-09-28T20:48:10.809Z,59.35
2018-09-28T20:50:40.085Z,58.68
2018-09-28T20:53:09.250Z,59.31
2018-09-28T20:55:38.427Z,59.17
2018-09-28T20:58:07.685Z,58.92
2018-09-28T21:00:36.908Z,58.91
2018-09-28T21:03:06.270Z,58.85
2018-09-28T21:05:35.720Z,59.04
2018-09-28T21:08:04.858Z,58.72
2018-09-28T21:10:34.077Z,58.68
2018-09-28T21:13:03.316Z,57.89
2018-09-28T21:15:32.475Z,58.43
2018-09-28T21:18:01.711Z,58.00
2018-09-28T21:20:31.026Z,57.40
2018-09-28T21:23:00.287Z,57.97
2018-09-28T21:25:29.458Z,57.49
2018-09-28T21:27:58.649Z,58.22
2018-09-28T21:30:27.862Z,58.07
2018-09-28T21:32:57.069Z,58.02
2018-09-28T21:35:26.262Z,58.97
2018-09-28T21:37:55.533Z,57.96
2018-09-28T21:40:24.712Z,59.12
2018-09-28T21:42:53.922Z,58.31
2018-09-28T21:45:23.081Z,58.57
2018-09-28T21:47:52.355Z,59.20
2018-09-28T21:50:21.476Z,59.58
2018-09-28T21:52:50.638Z,58.76
2018-09-28T21:55:20.357Z,58.99
2018-09-28T21:57:49.492Z,59.24
2018-09-28T22:00:19.047Z,59.31
2018-09-28T22:02:48.301Z,59.21
2018-09-28T22:05:17.724Z,58.75
2018-09-28T22:07:46.846Z,58.63
2018-09-28T22:10:16.200Z,59.35
2018-09-28T22:12:45.437Z,59.70
2018-09-28T22:15:14.781Z,58.75
2018-09-28T22:17:43.969Z,58.71
2018-09-28T22:20:13.210Z,59.16
2018-09-28T22:22:42.545Z,58.55
2018-09-28T22:25:11.893Z,58.61
2018-09-28T22:27:41.088Z,58.42
2018-09-28T22:30:10.375Z,58.54
2018-09-28T22:32:39.997Z,58.32
2018-09-28T22:35:09.183Z,58.25
2018-09-28T22:37:38.369Z,58.59
2018-09-28T22:40:07.488Z,58.16
2018-09-28T22:47:22.929Z,57.28
2018-09-28T22:49:52.348Z,57.94
2018-09-28T22:52:21.578Z,58.65
2018-09-28T22:54:50.888Z,58.35
2018-09-28T22:57:20.146Z,58.82
2018-09-28T22:59:49.446Z,57.97
2018-09-28T23:02:18.705Z,58.05
2018-09-28T23:04:47.968Z,58.20
2018-09-28T23:07:17.198Z,59.12
2018-09-28T23:09:46.418Z,61.33
2018-09-28T23:12:15.532Z,59.40
2018-09-28T23:14:44.841Z,57.60
2018-09-28T23:17:14.127Z,58.14
2018-09-28T23:19:43.437Z,57.80
2018-09-28T23:22:12.828Z,57.19
2018-09-28T23:24:42.140Z,56.93
2018-09-28T23:27:11.325Z,56.56
2018-09-28T23:29:40.752Z,57.19
2018-09-28T23:32:10.044Z,56.08
2018-09-28T23:34:39.328Z,56.77
2018-09-28T23:37:08.581Z,57.50
2018-09-28T23:39:38.306Z,56.73
2018-09-28T23:42:07.543Z,56.38
2018-09-28T23:44:36.786Z,56.24
2018-09-28T23:47:06.141Z,56.23
2018-09-28T23:49:35.416Z,56.42
2018-09-28T23:52:04.653Z,56.97
2018-09-28T23:54:33.901Z,56.52
2018-09-28T23:57:03.247Z,57.09
2018-09-28T23:59:32.520Z,56.56
